KELA

Eagle Lake Airport

Eagle Lake, Texas, USA
METAR KELA 170555Z AUTO 02005KT 10SM OVC006 09/08 A3004 RMK AO2 60057 T00850082 10107 20085 401300057
Observed Flight Rules
Dec-17 @ 05:55 UTC (26 minutes ago) Instrument Flight Rules
Wind Visibility Clouds
20° at 5 knots 10 miles
  • Overcast at 600' AGL
Temperatures Readings
Current 9°C / 48°F
Dewpoint 8°C / 46°F
Humidity 94%
Altimeter 30.04" Hg
Pressure 1017 hPa
Elevation 56
METAR KELA 170555Z AUTO 02005KT 10SM OVC006 09/08 A3004 RMK AO2 60057 T00850082 10107 20085 401300057
Observed Flight Rules
Dec-17 @ 05:55 UTC
(26 minutes ago)
IFR
Wind Visibility
20° at 5 knots 10 miles
Clouds
  • Overcast at 600' AGL
Temperature Dewpoint
9°C / 48°F 8°C / 46°F
Humidity Altimeter Pressure
94% 30.04" Hg 1017 hPa